createdAt,value
2017-11-14T00:00:27.431Z,8.00
2017-11-14T00:02:56.683Z,7.90
2017-11-14T00:05:25.938Z,8.00
2017-11-14T00:07:55.172Z,8.70
2017-11-14T00:10:24.450Z,6.63
2017-11-14T00:12:54.663Z,6.97
2017-11-14T00:15:23.930Z,7.50
2017-11-14T00:17:53.180Z,6.93
2017-11-14T00:20:22.451Z,8.13
2017-11-14T00:22:51.695Z,8.07
2017-11-14T00:25:20.936Z,8.23
2017-11-14T00:27:50.363Z,8.40
2017-11-14T00:30:20.671Z,8.03
2017-11-14T00:32:49.943Z,9.67
2017-11-14T00:35:19.183Z,9.37
2017-11-14T00:37:49.284Z,8.30
2017-11-14T00:40:18.531Z,10.17
2017-11-14T00:42:48.537Z,7.90
2017-11-14T00:45:17.816Z,7.10
2017-11-14T00:47:47.322Z,10.20
2017-11-14T00:50:16.595Z,9.73
2017-11-14T00:52:45.857Z,8.40
2017-11-14T00:55:15.147Z,8.90
2017-11-14T00:57:44.430Z,8.33
2017-11-14T01:00:13.747Z,7.93
2017-11-14T01:02:43.771Z,8.70
2017-11-14T01:05:13.035Z,8.07
2017-11-14T01:07:42.272Z,7.20
2017-11-14T01:10:11.764Z,6.97
2017-11-14T01:12:40.999Z,7.20
2017-11-14T01:15:10.367Z,7.97
2017-11-14T01:17:40.377Z,7.20
2017-11-14T01:20:09.788Z,7.07
2017-11-14T01:22:39.813Z,7.67
2017-11-14T01:25:09.083Z,7.07
2017-11-14T01:27:38.433Z,6.97
2017-11-14T01:30:07.687Z,6.17
2017-11-14T01:32:36.976Z,6.43
2017-11-14T01:35:06.235Z,8.17
2017-11-14T01:37:35.764Z,7.03
2017-11-14T01:40:05.644Z,7.13
2017-11-14T01:42:35.980Z,7.10
2017-11-14T01:45:05.224Z,8.23
2017-11-14T01:47:34.554Z,6.97
2017-11-14T01:50:03.806Z,8.27
2017-11-14T01:52:33.073Z,7.83
2017-11-14T01:55:02.412Z,7.47
2017-11-14T01:57:31.681Z,7.80
2017-11-14T02:00:00.970Z,7.47
2017-11-14T02:02:30.220Z,6.83
2017-11-14T02:04:59.469Z,6.60
2017-11-14T02:07:29.743Z,8.70
2017-11-14T02:09:59.169Z,6.70
2017-11-14T02:12:28.434Z,7.37
2017-11-14T02:14:57.663Z,8.10
2017-11-14T02:17:26.918Z,6.53
2017-11-14T02:19:56.195Z,6.67
2017-11-14T02:22:25.442Z,6.67
2017-11-14T02:24:54.892Z,6.67
2017-11-14T02:27:24.137Z,6.10
2017-11-14T02:29:53.396Z,7.30
2017-11-14T02:32:22.648Z,7.27
2017-11-14T02:34:51.990Z,7.60
2017-11-14T02:37:21.256Z,7.40
2017-11-14T02:39:50.511Z,6.73
2017-11-14T02:42:20.531Z,5.50
2017-11-14T02:44:49.765Z,6.33
2017-11-14T02:47:19.012Z,6.10
2017-11-14T02:49:48.315Z,6.57
2017-11-14T02:52:17.575Z,6.17
2017-11-14T02:54:46.818Z,5.20
2017-11-14T02:57:17.051Z,6.37
2017-11-14T02:59:47.063Z,5.70
2017-11-14T03:02:16.339Z,6.20
2017-11-14T03:04:45.764Z,6.10
2017-11-14T03:07:15.036Z,5.87
2017-11-14T03:09:44.382Z,7.10
2017-11-14T03:12:13.892Z,6.17
2017-11-14T03:14:43.921Z,5.93
2017-11-14T03:17:13.159Z,6.37
2017-11-14T03:19:42.419Z,6.20
2017-11-14T03:22:11.698Z,7.60
2017-11-14T03:24:41.710Z,6.23
2017-11-14T03:27:11.116Z,6.90
2017-11-14T03:29:41.163Z,5.90
2017-11-14T03:32:10.410Z,5.77
2017-11-14T03:34:39.663Z,7.00
2017-11-14T03:37:09.127Z,6.10
2017-11-14T03:39:38.372Z,6.30
2017-11-14T03:42:07.636Z,5.43
2017-11-14T03:44:36.983Z,5.37
2017-11-14T03:47:06.262Z,6.20
2017-11-14T03:49:35.628Z,5.40
2017-11-14T03:52:04.976Z,5.93
2017-11-14T03:54:34.244Z,6.63
2017-11-14T03:57:03.550Z,5.83
2017-11-14T03:59:33.588Z,5.70
2017-11-14T04:02:02.876Z,4.50
2017-11-14T04:04:32.164Z,5.00
2017-11-14T04:07:01.444Z,4.40
2017-11-14T04:09:31.319Z,4.40
2017-11-14T04:12:01.337Z,5.10
2017-11-14T04:14:30.608Z,4.73
2017-11-14T04:17:00.628Z,4.73
2017-11-14T04:19:29.874Z,6.40
2017-11-14T04:21:59.155Z,3.97
2017-11-14T04:24:28.414Z,5.47
2017-11-14T04:26:57.650Z,4.43
2017-11-14T04:29:27.679Z,5.10
2017-11-14T04:31:56.949Z,5.10
2017-11-14T04:34:26.232Z,5.40
2017-11-14T04:36:55.656Z,5.77
2017-11-14T04:39:24.962Z,5.50
2017-11-14T04:41:55.791Z,4.63
2017-11-14T04:44:25.039Z,4.90
2017-11-14T04:46:54.318Z,4.17
2017-11-14T04:49:24.341Z,5.23
2017-11-14T04:51:53.603Z,5.23
2017-11-14T04:54:22.862Z,5.13
2017-11-14T04:56:52.122Z,5.80
2017-11-14T04:59:21.730Z,5.40
2017-11-14T05:01:51.131Z,4.40
2017-11-14T05:04:21.175Z,4.67
2017-11-14T05:06:50.451Z,6.70
2017-11-14T05:09:19.856Z,5.97
2017-11-14T05:11:49.095Z,5.68
2017-11-14T05:14:18.356Z,5.47
2017-11-14T05:16:47.699Z,5.00
2017-11-14T05:19:16.944Z,3.80
2017-11-14T05:21:46.200Z,5.37
2017-11-14T05:24:15.558Z,5.70
2017-11-14T05:26:44.839Z,3.40
2017-11-14T05:29:14.272Z,4.93
2017-11-14T05:31:43.535Z,5.43
2017-11-14T05:34:12.771Z,4.70
2017-11-14T05:36:42.189Z,5.40
2017-11-14T05:39:12.825Z,5.07
2017-11-14T05:41:42.137Z,5.50
2017-11-14T05:44:11.346Z,4.80
2017-11-14T05:46:40.608Z,5.10
2017-11-14T05:49:09.855Z,4.67
2017-11-14T05:51:39.091Z,4.90
2017-11-14T05:54:08.338Z,5.50
2017-11-14T05:56:37.598Z,4.30
2017-11-14T05:59:07.019Z,4.90
2017-11-14T06:01:36.282Z,5.27
2017-11-14T06:04:05.725Z,5.47
2017-11-14T06:06:35.783Z,5.63
2017-11-14T06:09:05.346Z,4.10
2017-11-14T06:11:34.616Z,4.33
2017-11-14T06:14:03.873Z,5.00
2017-11-14T06:16:33.117Z,5.67
2017-11-14T06:19:02.372Z,6.43
2017-11-14T06:21:32.389Z,5.93
2017-11-14T06:24:01.674Z,5.60
2017-11-14T06:26:30.999Z,5.00
2017-11-14T06:29:00.207Z,5.90
2017-11-14T06:31:29.526Z,5.83
2017-11-14T06:33:58.764Z,5.20
2017-11-14T06:36:28.022Z,5.63
2017-11-14T06:38:57.254Z,5.13
2017-11-14T06:41:26.852Z,5.70
2017-11-14T06:43:56.258Z,4.30
2017-11-14T06:46:25.491Z,4.77
2017-11-14T06:48:55.534Z,5.27
2017-11-14T06:51:25.017Z,5.20
2017-11-14T06:53:54.259Z,5.60
2017-11-14T06:56:23.513Z,5.67
2017-11-14T06:58:52.758Z,6.13
2017-11-14T07:01:22.079Z,5.90
2017-11-14T07:03:51.412Z,5.03
2017-11-14T07:06:20.726Z,5.57
2017-11-14T07:08:50.738Z,4.90
2017-11-14T07:11:19.988Z,5.03
2017-11-14T07:13:49.279Z,5.13
2017-11-14T07:16:18.512Z,5.10
2017-11-14T07:18:48.039Z,5.70
2017-11-14T07:21:17.288Z,5.33
2017-11-14T07:23:46.689Z,5.23
2017-11-14T07:26:15.938Z,4.83
2017-11-14T07:28:45.243Z,4.97
2017-11-14T07:31:14.520Z,6.27
2017-11-14T07:33:43.775Z,5.57
2017-11-14T07:36:13.028Z,5.33
2017-11-14T07:38:42.454Z,4.50
2017-11-14T07:41:12.422Z,4.63
2017-11-14T07:43:41.662Z,4.30
2017-11-14T07:46:11.098Z,5.20
2017-11-14T07:48:40.472Z,4.40
2017-11-14T07:51:09.766Z,4.70
2017-11-14T07:53:39.102Z,4.10
2017-11-14T07:56:08.335Z,4.40
2017-11-14T07:58:37.602Z,5.40
2017-11-14T08:01:06.835Z,4.20
2017-11-14T08:03:36.109Z,4.67
2017-11-14T08:06:05.384Z,4.17
2017-11-14T08:08:34.652Z,5.00
2017-11-14T08:11:03.903Z,3.87
2017-11-14T08:13:33.176Z,4.80
2017-11-14T08:16:03.222Z,4.27
2017-11-14T08:18:33.335Z,4.53
2017-11-14T08:21:03.382Z,5.60
2017-11-14T08:23:32.627Z,5.43
2017-11-14T08:26:01.915Z,5.20
2017-11-14T08:28:31.177Z,5.77
2017-11-14T08:31:00.427Z,5.70
2017-11-14T08:33:29.770Z,5.83
2017-11-14T08:35:59.021Z,5.50
2017-11-14T08:38:28.293Z,5.63
2017-11-14T08:40:57.537Z,8.20
2017-11-14T08:43:26.972Z,7.47
2017-11-14T08:45:56.232Z,7.27
2017-11-14T08:48:25.509Z,8.27
2017-11-14T08:50:54.785Z,7.30
2017-11-14T08:53:24.071Z,7.43
2017-11-14T08:55:53.463Z,7.17
2017-11-14T08:58:23.516Z,6.40
2017-11-14T09:00:52.763Z,7.60
2017-11-14T09:03:22.785Z,6.90
2017-11-14T09:05:52.836Z,7.57
2017-11-14T09:08:22.254Z,6.60
2017-11-14T09:10:52.555Z,6.73
2017-11-14T09:13:22.580Z,7.10
2017-11-14T09:15:51.876Z,6.60
2017-11-14T09:18:21.136Z,6.43
2017-11-14T09:20:50.416Z,7.33
2017-11-14T09:23:19.908Z,6.47
2017-11-14T09:25:49.177Z,7.13
2017-11-14T09:28:19.214Z,7.33
2017-11-14T09:30:49.083Z,7.37
2017-11-14T09:33:18.370Z,7.43
2017-11-14T09:35:47.648Z,6.33
2017-11-14T09:38:16.938Z,6.83
2017-11-14T09:40:46.209Z,6.83
2017-11-14T09:43:15.490Z,7.63
2017-11-14T09:45:44.809Z,7.87
2017-11-14T09:48:14.972Z,6.43
2017-11-14T09:50:44.260Z,6.67
2017-11-14T09:53:13.523Z,6.73
2017-11-14T09:55:42.778Z,6.60
2017-11-14T09:58:12.097Z,5.80
2017-11-14T10:00:41.356Z,6.70
2017-11-14T10:03:10.617Z,6.20
2017-11-14T10:05:39.901Z,6.03
2017-11-14T10:08:09.466Z,5.43
2017-11-14T10:10:38.715Z,5.93
2017-11-14T10:13:08.004Z,7.23
2017-11-14T10:15:37.280Z,6.70
2017-11-14T10:18:06.551Z,6.83
2017-11-14T10:20:36.780Z,5.47
2017-11-14T10:23:06.192Z,5.80
2017-11-14T10:25:35.680Z,6.10
2017-11-14T10:28:05.643Z,6.37
2017-11-14T10:30:34.894Z,6.93
2017-11-14T10:33:04.171Z,5.40
2017-11-14T10:35:33.433Z,7.77
2017-11-14T10:38:03.623Z,5.27
2017-11-14T10:40:33.666Z,7.00
2017-11-14T10:43:02.943Z,5.83
2017-11-14T10:45:32.222Z,5.63
2017-11-14T10:48:01.482Z,7.00
2017-11-14T10:50:30.882Z,5.90
2017-11-14T10:53:00.139Z,5.87
2017-11-14T10:55:29.394Z,5.30
2017-11-14T10:57:58.675Z,6.03
2017-11-14T11:00:33.595Z,5.00
2017-11-14T11:03:02.867Z,5.43
2017-11-14T11:05:32.153Z,5.60
2017-11-14T11:08:01.426Z,4.90
2017-11-14T11:10:30.699Z,5.20
2017-11-14T11:13:00.729Z,6.17
2017-11-14T11:15:29.990Z,6.13
2017-11-14T11:17:59.291Z,6.17
2017-11-14T11:20:28.556Z,6.97
2017-11-14T11:22:57.826Z,6.60
2017-11-14T11:25:27.087Z,6.63
2017-11-14T11:27:56.523Z,5.23
2017-11-14T11:30:26.657Z,5.53
2017-11-14T11:32:56.207Z,4.47
2017-11-14T11:35:25.493Z,5.87
2017-11-14T11:37:54.739Z,4.50
2017-11-14T11:40:24.761Z,5.10
2017-11-14T11:42:54.887Z,5.80
2017-11-14T11:45:24.919Z,5.03
2017-11-14T11:47:54.172Z,4.10
2017-11-14T11:50:23.807Z,4.07
2017-11-14T11:52:53.835Z,5.00
2017-11-14T11:55:23.118Z,4.40
2017-11-14T11:57:52.383Z,4.50
2017-11-14T12:00:21.667Z,3.73
2017-11-14T12:02:50.936Z,3.57
2017-11-14T12:05:20.960Z,3.33
2017-11-14T12:07:50.363Z,3.80
2017-11-14T12:10:20.565Z,4.20
2017-11-14T12:12:49.980Z,4.23
2017-11-14T12:15:20.023Z,3.80
2017-11-14T12:17:49.283Z,3.40
2017-11-14T12:20:18.550Z,4.57
2017-11-14T12:22:48.017Z,3.50
2017-11-14T12:25:18.112Z,3.40
2017-11-14T12:27:47.356Z,4.57
2017-11-14T12:30:16.613Z,3.77
2017-11-14T12:32:45.872Z,4.43
2017-11-14T12:35:15.129Z,2.87
2017-11-14T12:37:45.142Z,4.90
2017-11-14T12:40:14.431Z,4.47
2017-11-14T12:42:45.216Z,4.10
2017-11-14T12:45:14.479Z,4.33
2017-11-14T12:47:43.731Z,3.73
2017-11-14T12:50:13.006Z,4.07
2017-11-14T12:52:42.491Z,4.73
2017-11-14T12:55:12.558Z,3.57
2017-11-14T12:57:41.809Z,3.90
2017-11-14T13:00:11.333Z,4.10
2017-11-14T13:02:40.611Z,4.77
2017-11-14T13:05:10.572Z,3.90
2017-11-14T13:07:39.819Z,3.80
2017-11-14T13:10:09.094Z,4.60
2017-11-14T13:12:38.352Z,3.13
2017-11-14T13:15:08.397Z,4.33
2017-11-14T13:17:37.756Z,3.73
2017-11-14T13:20:06.995Z,3.27
2017-11-14T13:22:36.563Z,2.60
2017-11-14T13:25:05.821Z,3.10
2017-11-14T13:27:35.055Z,3.30
2017-11-14T13:30:04.456Z,2.80
2017-11-14T13:32:33.763Z,3.10
2017-11-14T13:35:03.098Z,3.40
2017-11-14T13:37:32.378Z,3.97
2017-11-14T13:40:01.621Z,3.30
2017-11-14T13:42:30.888Z,4.43
2017-11-14T13:45:00.723Z,2.63
2017-11-14T13:47:29.995Z,3.00
2017-11-14T13:50:00.111Z,2.90
2017-11-14T13:52:30.237Z,2.80
2017-11-14T13:55:00.377Z,3.27
2017-11-14T13:57:30.540Z,2.73
2017-11-14T13:59:59.858Z,2.30
2017-11-14T14:02:29.129Z,3.37
2017-11-14T14:04:58.375Z,2.03
2017-11-14T14:07:27.688Z,2.30
2017-11-14T14:09:57.708Z,2.80
2017-11-14T14:12:27.102Z,3.30
2017-11-14T14:14:56.369Z,2.57
2017-11-14T14:17:25.646Z,2.73
2017-11-14T14:19:54.997Z,2.57
2017-11-14T14:22:25.046Z,2.57
2017-11-14T14:24:54.291Z,2.70
2017-11-14T14:27:23.538Z,2.80
2017-11-14T14:29:53.644Z,2.80
2017-11-14T14:32:23.663Z,2.33
2017-11-14T14:34:53.712Z,3.67
2017-11-14T14:37:22.972Z,3.40
2017-11-14T14:39:53.236Z,3.17
2017-11-14T14:42:22.495Z,3.77
2017-11-14T14:44:51.774Z,2.60
2017-11-14T14:47:21.023Z,2.53
2017-11-14T14:49:51.144Z,3.30
2017-11-14T14:52:21.261Z,2.10
2017-11-14T14:54:51.259Z,2.60
2017-11-14T14:57:21.282Z,1.87
2017-11-14T14:59:50.593Z,2.87
2017-11-14T15:02:20.632Z,2.40
2017-11-14T15:04:49.885Z,2.73
2017-11-14T15:07:19.144Z,2.07
2017-11-14T15:09:48.526Z,2.87
2017-11-14T15:12:17.761Z,2.70
2017-11-14T15:14:47.214Z,2.27
2017-11-14T15:17:16.471Z,1.90
2017-11-14T15:19:45.823Z,2.80
2017-11-14T15:22:15.869Z,3.37
2017-11-14T15:24:45.285Z,2.63
2017-11-14T15:27:14.735Z,2.10
2017-11-14T15:29:43.970Z,2.60
2017-11-14T15:32:13.231Z,2.07
2017-11-14T15:34:43.988Z,2.83
2017-11-14T15:37:13.380Z,2.47
2017-11-14T15:39:42.707Z,1.67
2017-11-14T15:42:11.943Z,3.13
2017-11-14T15:44:41.261Z,2.00
2017-11-14T15:47:10.509Z,4.87
2017-11-14T15:49:39.773Z,9.07
2017-11-14T15:52:09.015Z,6.70
2017-11-14T15:54:39.038Z,7.93
2017-11-14T15:57:08.411Z,11.97
2017-11-14T15:59:39.576Z,6.90
2017-11-14T16:02:08.863Z,7.97
2017-11-14T16:04:38.974Z,4.40
2017-11-14T16:07:08.984Z,3.07
2017-11-14T16:09:38.240Z,3.00
2017-11-14T16:12:07.824Z,2.80
2017-11-14T16:14:37.103Z,2.20
2017-11-14T16:17:06.363Z,3.00
2017-11-14T16:19:35.625Z,2.47
2017-11-14T16:22:05.428Z,2.40
2017-11-14T16:24:34.668Z,2.87
2017-11-14T16:27:03.943Z,2.10
2017-11-14T16:29:33.321Z,3.83
2017-11-14T16:32:03.332Z,2.10
2017-11-14T16:34:32.665Z,3.17
2017-11-14T16:37:02.503Z,1.70
2017-11-14T16:39:31.859Z,2.00
2017-11-14T16:42:01.367Z,1.67
2017-11-14T16:44:30.603Z,1.50
2017-11-14T16:46:59.878Z,1.47
2017-11-14T16:49:29.151Z,2.40
2017-11-14T16:51:58.417Z,1.80
2017-11-14T16:54:27.938Z,2.70
2017-11-14T16:56:57.212Z,2.00
2017-11-14T16:59:26.556Z,2.23
2017-11-14T17:01:55.903Z,1.73
2017-11-14T17:04:25.178Z,1.83
2017-11-14T17:06:54.437Z,1.40
2017-11-14T17:09:23.683Z,2.23
2017-11-14T17:11:53.733Z,4.20
2017-11-14T17:14:22.987Z,1.53
2017-11-14T17:16:52.326Z,1.47
2017-11-14T17:19:22.428Z,1.80
2017-11-14T17:21:51.836Z,2.10
2017-11-14T17:24:21.866Z,1.70
2017-11-14T17:26:51.251Z,1.40
2017-11-14T17:29:20.575Z,2.10
2017-11-14T17:31:50.695Z,1.67
2017-11-14T17:34:20.099Z,1.47
2017-11-14T17:36:49.382Z,1.40
2017-11-14T17:39:19.427Z,1.40
2017-11-14T17:41:48.665Z,1.60
2017-11-14T17:44:18.106Z,1.20
2017-11-14T17:46:47.345Z,1.57
2017-11-14T17:49:16.627Z,1.50
2017-11-14T17:51:45.868Z,1.20
2017-11-14T17:54:15.102Z,1.33
2017-11-14T17:56:45.128Z,2.40
2017-11-14T17:59:14.376Z,1.40
2017-11-14T18:01:43.620Z,1.50
2017-11-14T18:04:12.892Z,1.50
2017-11-14T18:06:42.132Z,1.10
2017-11-14T18:09:11.392Z,1.63
2017-11-14T18:11:40.685Z,1.17
2017-11-14T18:14:10.703Z,1.70
2017-11-14T18:16:39.964Z,1.30
2017-11-14T18:19:09.195Z,1.33
2017-11-14T18:21:38.479Z,1.50
2017-11-14T18:24:07.770Z,1.60
2017-11-14T18:26:37.792Z,1.80
2017-11-14T18:29:07.264Z,1.30
2017-11-14T18:31:36.665Z,1.40
2017-11-14T18:34:05.944Z,1.07
2017-11-14T18:36:35.395Z,1.47
2017-11-14T18:39:04.696Z,1.60
2017-11-14T18:41:33.981Z,1.30
2017-11-14T18:44:03.215Z,1.10
2017-11-14T18:46:32.480Z,1.20
2017-11-14T18:49:01.781Z,1.63
2017-11-14T18:51:31.837Z,1.70
2017-11-14T18:54:01.122Z,1.40
2017-11-14T18:56:30.387Z,1.80
2017-11-14T18:58:59.732Z,1.10
2017-11-14T19:01:29.043Z,1.40
2017-11-14T19:03:59.015Z,1.27
2017-11-14T19:06:28.432Z,1.03
2017-11-14T19:08:57.723Z,1.77
2017-11-14T19:11:26.957Z,1.13
2017-11-14T19:13:56.197Z,1.53
2017-11-14T19:16:25.473Z,1.23
2017-11-14T19:18:54.719Z,1.43
2017-11-14T19:21:24.151Z,1.67
2017-11-14T19:23:53.422Z,1.50
2017-11-14T19:26:22.695Z,0.93
2017-11-14T19:28:51.957Z,1.60
2017-11-14T19:31:21.963Z,2.03
2017-11-14T19:33:51.331Z,1.23
2017-11-14T19:36:20.565Z,1.70
2017-11-14T19:38:49.800Z,2.00
2017-11-14T19:41:19.082Z,1.97
2017-11-14T19:43:49.183Z,1.73
2017-11-14T19:46:19.196Z,2.80
2017-11-14T19:48:48.612Z,2.80
2017-11-14T19:51:18.645Z,1.77
2017-11-14T19:53:47.878Z,1.70
2017-11-14T19:56:17.139Z,2.07
2017-11-14T19:58:46.401Z,1.60
2017-11-14T20:01:15.657Z,2.63
2017-11-14T20:03:44.909Z,2.87
2017-11-14T20:06:15.678Z,1.60
2017-11-14T20:08:45.047Z,2.23
2017-11-14T20:11:14.565Z,1.60
2017-11-14T20:13:44.605Z,2.10
2017-11-14T20:16:13.872Z,2.17
2017-11-14T20:18:43.119Z,1.90
2017-11-14T20:21:12.396Z,2.50
2017-11-14T20:23:42.415Z,2.37
2017-11-14T20:26:11.810Z,1.97
2017-11-14T20:28:41.079Z,1.90
2017-11-14T20:31:10.333Z,2.20
2017-11-14T20:33:39.580Z,3.00
2017-11-14T20:36:08.847Z,2.43
2017-11-14T20:38:38.335Z,2.70
2017-11-14T20:41:07.594Z,2.03
2017-11-14T20:43:36.860Z,2.70
2017-11-14T20:46:06.163Z,2.90
2017-11-14T20:48:35.444Z,3.53
2017-11-14T20:51:04.677Z,3.07
2017-11-14T20:53:33.944Z,3.03
2017-11-14T20:56:03.208Z,2.93
2017-11-14T20:58:32.448Z,1.63
2017-11-14T21:01:01.768Z,2.23
2017-11-14T21:03:30.979Z,2.40
2017-11-14T21:06:00.228Z,2.27
2017-11-14T21:08:30.269Z,2.73
2017-11-14T21:10:59.511Z,2.47
2017-11-14T21:13:28.954Z,3.20
2017-11-14T21:15:58.999Z,2.50
2017-11-14T21:18:28.244Z,2.10
2017-11-14T21:20:57.508Z,2.10
2017-11-14T21:23:26.790Z,2.27
2017-11-14T21:25:56.789Z,2.23
2017-11-14T21:28:26.059Z,1.80
2017-11-14T21:30:55.327Z,2.00
2017-11-14T21:33:24.591Z,1.97
2017-11-14T21:35:54.626Z,3.20
2017-11-14T21:38:23.900Z,1.90
2017-11-14T21:40:53.138Z,2.10
2017-11-14T21:43:22.614Z,2.23
2017-11-14T21:45:52.611Z,2.40
2017-11-14T21:48:21.870Z,2.17
2017-11-14T21:50:51.115Z,2.23
2017-11-14T21:53:20.465Z,2.47
2017-11-14T21:55:49.722Z,2.40
2017-11-14T21:58:18.955Z,1.77
2017-11-14T22:00:48.339Z,2.50
2017-11-14T22:03:18.343Z,2.30
2017-11-14T22:05:47.626Z,2.00
2017-11-14T22:08:16.950Z,2.70
2017-11-14T22:10:46.238Z,1.90
2017-11-14T22:13:15.451Z,3.30
2017-11-14T22:15:44.852Z,1.90
2017-11-14T22:18:14.195Z,2.10
2017-11-14T22:20:43.514Z,2.17
2017-11-14T22:23:12.758Z,1.80
2017-11-14T22:25:42.044Z,2.07
2017-11-14T22:28:11.468Z,2.80
2017-11-14T22:30:41.435Z,2.00
2017-11-14T22:33:10.832Z,2.23
2017-11-14T22:35:40.174Z,1.83
2017-11-14T22:38:09.485Z,1.73
2017-11-14T22:40:38.917Z,2.43
2017-11-14T22:43:08.127Z,2.03
2017-11-14T22:45:37.408Z,2.20
2017-11-14T22:48:06.674Z,2.97
2017-11-14T22:50:36.364Z,2.93
2017-11-14T22:53:06.379Z,2.33
2017-11-14T22:55:35.630Z,2.60
2017-11-14T22:58:04.863Z,1.97
2017-11-14T23:00:34.152Z,2.07
2017-11-14T23:03:03.611Z,2.60
2017-11-14T23:05:32.868Z,2.97
2017-11-14T23:08:02.268Z,4.03
2017-11-14T23:10:31.715Z,3.40
2017-11-14T23:13:01.039Z,3.37
2017-11-14T23:15:31.178Z,5.20
2017-11-14T23:18:01.226Z,4.50
2017-11-14T23:20:31.123Z,4.23
2017-11-14T23:23:00.407Z,4.17
2017-11-14T23:25:30.423Z,4.60
2017-11-14T23:28:00.542Z,5.40
2017-11-14T23:30:30.550Z,4.17
2017-11-14T23:32:59.836Z,4.60
2017-11-14T23:35:29.074Z,5.20
2017-11-14T23:37:59.183Z,5.07
2017-11-14T23:40:28.443Z,4.40
2017-11-14T23:42:57.711Z,4.17
2017-11-14T23:45:26.968Z,2.87
2017-11-14T23:47:56.203Z,4.03
2017-11-14T23:50:25.498Z,3.73
2017-11-14T23:52:54.867Z,4.70
2017-11-14T23:55:24.147Z,4.10
2017-11-14T23:57:53.388Z,3.70
